createdAt,value
2022-11-28T00:01:28.582Z,7.75
2022-11-28T00:03:56.888Z,6.15
2022-11-28T00:06:24.879Z,5.57
2022-11-28T00:08:54.787Z,9.55
2022-11-28T00:11:23.368Z,10.73
2022-11-28T00:13:51.045Z,7.88
2022-11-28T00:16:21.655Z,6.93
2022-11-28T00:18:49.830Z,5.88
2022-11-28T00:21:18.359Z,10.45
2022-11-28T00:23:47.110Z,6.15
2022-11-28T00:26:18.105Z,7.30
2022-11-28T00:28:45.861Z,7.78
2022-11-28T00:31:14.543Z,7.95
2022-11-28T00:33:44.293Z,7.45
2022-11-28T00:36:13.263Z,9.03
2022-11-28T00:38:41.290Z,8.90
2022-11-28T00:41:13.855Z,7.07
2022-11-28T00:44:43.606Z,7.67
2022-11-28T00:47:12.723Z,7.43
2022-11-28T00:49:40.318Z,6.35
2022-11-28T00:52:08.043Z,7.38
2022-11-28T00:54:36.785Z,6.65
2022-11-28T00:57:05.448Z,7.60
2022-11-28T00:59:32.988Z,6.88
2022-11-28T01:02:01.088Z,6.15
2022-11-28T01:04:30.414Z,8.75
2022-11-28T01:06:58.405Z,8.05
2022-11-28T01:09:26.449Z,9.85
2022-11-28T01:11:55.284Z,6.88
2022-11-28T01:14:38.874Z,7.72
2022-11-28T01:17:07.695Z,6.32
2022-11-28T01:19:36.775Z,7.38
2022-11-28T01:22:06.340Z,9.50
2022-11-28T01:24:33.997Z,7.03
2022-11-28T01:27:02.710Z,7.83
2022-11-28T01:29:30.425Z,7.15
2022-11-28T01:31:58.543Z,10.03
2022-11-28T01:34:26.323Z,7.15
2022-11-28T01:36:55.467Z,8.52
2022-11-28T01:39:23.277Z,8.05
2022-11-28T01:41:51.247Z,6.50
2022-11-28T01:44:56.421Z,9.20
2022-11-28T01:47:26.873Z,8.82
2022-11-28T01:49:55.225Z,6.93
2022-11-28T01:52:24.496Z,9.50
2022-11-28T01:55:09.765Z,8.48
2022-11-28T01:57:37.358Z,11.38
2022-11-28T02:00:09.191Z,11.43
2022-11-28T02:02:40.496Z,7.85
2022-11-28T02:05:09.002Z,5.95
2022-11-28T02:07:38.770Z,9.43
2022-11-28T02:10:08.388Z,9.75
2022-11-28T02:12:45.949Z,9.40
2022-11-28T02:15:30.564Z,8.93
2022-11-28T02:18:10.896Z,10.85
2022-11-28T02:20:55.467Z,11.38
2022-11-28T02:23:27.499Z,8.68
2022-11-28T02:26:10.886Z,10.13
2022-11-28T02:29:03.569Z,9.32
2022-11-28T02:32:05.210Z,6.85
2022-11-28T02:34:36.580Z,12.38
2022-11-28T02:37:07.949Z,7.10
2022-11-28T02:39:41.420Z,8.75
2022-11-28T02:42:13.604Z,8.70
2022-11-28T02:44:44.489Z,9.95
2022-11-28T02:47:17.072Z,10.73
2022-11-28T02:49:48.244Z,8.35
2022-11-28T02:52:19.207Z,11.38
2022-11-28T02:54:48.780Z,7.78
2022-11-28T02:57:16.918Z,7.38
2022-11-28T02:59:49.774Z,8.63
2022-11-28T03:02:21.075Z,8.35
2022-11-28T03:04:54.768Z,10.45
2022-11-28T03:07:33.021Z,10.63
2022-11-28T03:10:15.720Z,8.68
2022-11-28T03:12:52.714Z,10.82
2022-11-28T03:15:23.922Z,13.43
2022-11-28T03:18:02.969Z,8.18
2022-11-28T03:20:36.948Z,10.07
2022-11-28T03:23:14.206Z,8.65
2022-11-28T03:25:51.342Z,10.45
2022-11-28T03:28:26.205Z,12.27
2022-11-28T03:30:56.330Z,10.68
2022-11-28T03:33:27.119Z,7.93
2022-11-28T03:35:57.684Z,7.97
2022-11-28T03:38:29.821Z,11.65
2022-11-28T03:41:00.309Z,8.57
2022-11-28T03:43:33.288Z,12.85
2022-11-28T03:46:06.057Z,7.80
2022-11-28T03:48:37.330Z,10.73
2022-11-28T03:51:08.431Z,8.10
2022-11-28T03:53:40.589Z,9.60
2022-11-28T03:56:13.001Z,13.32
2022-11-28T03:58:44.854Z,10.25
2022-11-28T04:01:16.307Z,8.27
2022-11-28T04:03:48.204Z,7.35
2022-11-28T04:06:18.246Z,9.43
2022-11-28T04:08:50.362Z,12.23
2022-11-28T04:11:20.122Z,9.55
2022-11-28T04:13:53.075Z,9.93
2022-11-28T04:16:24.176Z,9.93
2022-11-28T04:18:56.930Z,9.20
2022-11-28T04:21:28.077Z,9.23
2022-11-28T04:23:59.788Z,9.32
2022-11-28T04:26:30.330Z,9.82
2022-11-28T04:28:58.775Z,8.82
2022-11-28T04:31:27.193Z,8.73
2022-11-28T04:33:59.863Z,8.45
2022-11-28T04:36:28.313Z,10.95
2022-11-28T04:38:58.511Z,12.48
2022-11-28T04:41:29.917Z,12.68
2022-11-28T04:44:02.096Z,11.18
2022-11-28T04:46:34.276Z,10.48
2022-11-28T04:49:03.496Z,10.38
2022-11-28T04:51:37.606Z,14.38
2022-11-28T04:54:07.778Z,9.68
2022-11-28T04:56:41.416Z,9.35
2022-11-28T04:59:09.803Z,9.60
2022-11-28T05:01:39.840Z,13.55
2022-11-28T05:04:08.864Z,8.67
2022-11-28T05:06:39.086Z,9.77
2022-11-28T05:09:06.998Z,9.27
2022-11-28T05:11:34.578Z,12.05
2022-11-28T05:14:02.136Z,16.00
2022-11-28T05:16:29.772Z,12.52
2022-11-28T05:18:57.677Z,11.95
2022-11-28T05:21:26.750Z,10.80
2022-11-28T05:23:54.300Z,10.38
2022-11-28T05:26:22.515Z,12.93
2022-11-28T05:28:51.806Z,10.43
2022-11-28T05:31:20.590Z,12.25
2022-11-28T05:33:48.815Z,10.02
2022-11-28T05:36:17.689Z,11.13
2022-11-28T05:38:47.088Z,15.05
2022-11-28T05:41:21.006Z,15.20
2022-11-28T05:43:48.895Z,15.57
2022-11-28T05:46:17.128Z,10.00
2022-11-28T05:48:45.759Z,16.02
2022-11-28T05:51:13.341Z,18.10
2022-11-28T05:53:40.921Z,12.77
2022-11-28T05:56:10.694Z,13.13
2022-11-28T05:58:38.609Z,15.13
2022-11-28T06:01:13.642Z,12.30
2022-11-28T06:03:41.630Z,13.25
2022-11-28T06:06:15.470Z,10.07
2022-11-28T06:08:43.934Z,14.30
2022-11-28T06:11:15.110Z,11.03
2022-11-28T06:13:43.106Z,10.63
2022-11-28T06:16:13.927Z,15.02
2022-11-28T06:18:42.224Z,14.20
2022-11-28T06:21:13.527Z,13.55
2022-11-28T06:23:44.046Z,13.52
2022-11-28T06:26:14.492Z,14.73
2022-11-28T06:28:42.348Z,15.50
2022-11-28T06:31:11.867Z,10.65
2022-11-28T06:33:40.186Z,16.55
2022-11-28T06:36:08.326Z,12.00
2022-11-28T06:38:36.231Z,15.15
2022-11-28T06:41:06.635Z,15.80
2022-11-28T06:43:35.770Z,11.80
2022-11-28T06:46:04.033Z,15.05
2022-11-28T06:48:32.313Z,12.82
2022-11-28T06:51:04.449Z,13.55
2022-11-28T06:53:32.885Z,13.30
2022-11-28T06:56:05.652Z,13.85
2022-11-28T06:58:33.320Z,13.43
2022-11-28T07:01:08.791Z,17.00
2022-11-28T07:03:36.570Z,12.13
2022-11-28T07:06:05.603Z,14.27
2022-11-28T07:08:33.492Z,15.57
2022-11-28T07:11:09.028Z,15.05
2022-11-28T07:13:37.353Z,14.57
2022-11-28T07:16:05.660Z,14.80
2022-11-28T07:18:34.719Z,14.35
2022-11-28T07:21:03.732Z,15.32
2022-11-28T07:23:31.449Z,13.70
2022-11-28T07:25:59.809Z,13.80
2022-11-28T07:28:28.218Z,11.63
2022-11-28T07:31:04.573Z,12.30
2022-11-28T07:33:32.458Z,15.00
2022-11-28T07:36:06.894Z,12.23
2022-11-28T07:38:34.912Z,18.88
2022-11-28T07:41:06.315Z,14.40
2022-11-28T07:43:33.900Z,13.75
2022-11-28T07:46:04.695Z,12.63
2022-11-28T07:48:32.317Z,12.45
2022-11-28T07:50:59.886Z,17.80
2022-11-28T07:53:29.074Z,16.47
2022-11-28T07:55:57.046Z,13.97
2022-11-28T07:58:24.777Z,12.38
2022-11-28T08:00:52.493Z,15.27
2022-11-28T08:03:20.259Z,13.90
2022-11-28T08:05:49.506Z,13.18
2022-11-28T08:08:17.693Z,13.45
2022-11-28T08:10:47.166Z,13.23
2022-11-28T08:13:15.101Z,14.82
2022-11-28T08:15:43.612Z,18.88
2022-11-28T08:18:11.142Z,14.18
2022-11-28T08:20:38.695Z,15.23
2022-11-28T08:23:06.232Z,12.27
2022-11-28T08:25:33.742Z,16.13
2022-11-28T08:28:02.744Z,16.70
2022-11-28T08:30:30.438Z,11.52
2022-11-28T08:32:58.460Z,15.82
2022-11-28T08:35:26.334Z,11.68
2022-11-28T08:37:57.710Z,12.47
2022-11-28T08:40:29.234Z,13.70
2022-11-28T08:42:56.809Z,13.32
2022-11-28T08:45:25.710Z,12.20
2022-11-28T08:47:53.245Z,11.77
2022-11-28T08:50:20.791Z,13.25
2022-11-28T08:52:48.340Z,12.33
2022-11-28T08:55:16.392Z,13.70
2022-11-28T08:57:43.917Z,13.52
2022-11-28T09:00:12.908Z,11.90
2022-11-28T09:02:41.921Z,10.52
2022-11-28T09:05:10.189Z,13.38
2022-11-28T09:07:37.734Z,12.30
2022-11-28T09:10:06.018Z,12.32
2022-11-28T09:12:34.690Z,14.27
2022-11-28T09:15:02.248Z,11.57
2022-11-28T09:17:29.783Z,12.57
2022-11-28T09:19:58.862Z,11.85
2022-11-28T09:22:26.578Z,14.57
2022-11-28T09:24:54.154Z,12.23
2022-11-28T09:27:21.661Z,13.38
2022-11-28T09:29:49.399Z,12.13
2022-11-28T09:32:16.923Z,16.02
2022-11-28T09:34:44.461Z,11.27
2022-11-28T09:37:13.382Z,11.33
2022-11-28T09:40:04.746Z,10.32
2022-11-28T09:42:32.320Z,12.05
2022-11-28T09:45:01.933Z,12.57
2022-11-28T09:47:31.680Z,12.25
2022-11-28T09:50:02.108Z,17.95
2022-11-28T09:52:35.006Z,14.57
2022-11-28T09:55:12.593Z,14.32
2022-11-28T09:57:42.288Z,11.60
2022-11-28T10:00:17.271Z,11.15
2022-11-28T10:02:55.878Z,12.07
2022-11-28T10:05:27.946Z,14.00
2022-11-28T10:08:11.030Z,12.52
2022-11-28T10:10:45.798Z,11.02
2022-11-28T10:13:17.466Z,11.35
2022-11-28T10:15:50.029Z,12.98
2022-11-28T10:18:30.797Z,14.60
2022-11-28T10:21:00.653Z,13.35
2022-11-28T10:23:32.027Z,11.25
2022-11-28T10:26:02.020Z,12.90
2022-11-28T10:28:31.855Z,12.82
2022-11-28T10:31:06.857Z,12.00
2022-11-28T10:33:39.487Z,10.38
2022-11-28T10:36:08.855Z,15.03
2022-11-28T10:38:37.783Z,12.82
2022-11-28T10:41:09.287Z,11.27
2022-11-28T10:43:43.950Z,14.40
2022-11-28T10:46:32.496Z,15.60
2022-11-28T10:49:04.870Z,12.30
2022-11-28T10:51:36.096Z,12.77
2022-11-28T10:54:20.957Z,10.48
2022-11-28T10:56:57.005Z,9.10
2022-11-28T10:59:32.269Z,13.65
2022-11-28T11:02:00.511Z,15.45
2022-11-28T11:04:28.610Z,12.45
2022-11-28T11:07:10.199Z,11.57
2022-11-28T11:09:43.629Z,12.20
2022-11-28T11:12:17.171Z,13.68
2022-11-28T11:14:45.127Z,15.63
2022-11-28T11:17:28.951Z,13.00
2022-11-28T11:19:58.862Z,10.90
2022-11-28T11:22:31.805Z,13.20
2022-11-28T11:25:11.312Z,14.93
2022-11-28T11:27:40.037Z,11.30
2022-11-28T11:30:19.220Z,11.18
2022-11-28T11:32:51.425Z,14.52
2022-11-28T11:35:22.371Z,11.20
2022-11-28T11:37:50.046Z,13.77
2022-11-28T11:40:27.223Z,12.93
2022-11-28T11:42:56.983Z,17.00
2022-11-28T11:45:27.729Z,12.85
2022-11-28T11:47:55.237Z,14.53
2022-11-28T11:50:24.698Z,13.13
2022-11-28T11:53:03.644Z,10.80
2022-11-28T11:55:34.061Z,12.35
2022-11-28T11:58:05.836Z,15.27
2022-11-28T12:00:37.541Z,14.77
2022-11-28T12:03:11.523Z,13.80
2022-11-28T12:06:12.773Z,16.90
2022-11-28T12:08:39.297Z,12.70
2022-11-28T12:11:14.911Z,15.23
2022-11-28T12:13:42.519Z,13.07
2022-11-28T12:16:23.833Z,12.90
2022-11-28T12:18:55.343Z,12.75
2022-11-28T12:21:27.598Z,13.07
2022-11-28T12:24:10.662Z,14.32
2022-11-28T12:26:45.408Z,16.38
2022-11-28T12:29:28.384Z,15.95
2022-11-28T12:32:06.668Z,13.15
2022-11-28T12:34:41.896Z,13.43
2022-11-28T12:37:17.838Z,12.73
2022-11-28T12:39:51.927Z,12.75
2022-11-28T12:42:50.650Z,13.70
2022-11-28T12:45:38.294Z,12.73
2022-11-28T12:48:21.184Z,15.68
2022-11-28T12:50:51.183Z,14.88
2022-11-28T12:53:32.665Z,15.63
2022-11-28T12:56:08.675Z,13.77
2022-11-28T12:58:41.209Z,14.45
2022-11-28T13:01:27.520Z,13.00
2022-11-28T13:04:02.867Z,13.45
2022-11-28T13:06:37.687Z,14.50
2022-11-28T13:09:23.609Z,16.42
2022-11-28T13:12:00.789Z,16.58
2022-11-28T13:14:39.107Z,14.57
2022-11-28T13:17:16.561Z,12.80
2022-11-28T13:19:48.272Z,15.63
2022-11-28T13:22:23.452Z,16.65
2022-11-28T13:24:56.607Z,17.15
2022-11-28T13:27:36.169Z,16.67
2022-11-28T13:30:14.494Z,15.65
2022-11-28T13:32:47.239Z,17.05
2022-11-28T13:35:15.528Z,13.38
2022-11-28T13:40:39.131Z,15.25
2022-11-28T13:43:11.857Z,15.63
2022-11-28T13:45:43.784Z,14.38
2022-11-28T13:51:37.793Z,17.92
2022-11-28T13:54:49.088Z,16.77
2022-11-28T13:57:26.521Z,18.52
2022-11-28T14:00:06.904Z,18.00
2022-11-28T14:02:42.102Z,18.63
2022-11-28T14:05:26.374Z,15.90
2022-11-28T14:07:55.975Z,14.35
2022-11-28T14:10:42.502Z,16.92
2022-11-28T14:13:33.422Z,19.75
2022-11-28T14:16:08.214Z,16.50
2022-11-28T14:18:56.622Z,14.50
2022-11-28T14:21:32.498Z,17.15
2022-11-28T14:24:04.192Z,16.63
2022-11-28T14:26:34.382Z,20.38
2022-11-28T14:29:02.953Z,16.65
2022-11-28T14:31:32.234Z,14.32
2022-11-28T14:34:02.555Z,12.80
2022-11-28T14:36:33.764Z,16.88
2022-11-28T14:39:05.394Z,17.42
2022-11-28T14:41:32.982Z,14.25
2022-11-28T14:44:33.785Z,16.55
2022-11-28T14:47:14.774Z,17.42
2022-11-28T14:49:44.924Z,13.23
2022-11-28T14:52:38.954Z,19.30
2022-11-28T14:55:17.213Z,14.50
2022-11-28T14:57:57.046Z,15.80
2022-11-28T15:00:27.687Z,16.67
2022-11-28T15:03:08.412Z,17.42
2022-11-28T15:05:41.302Z,14.52
2022-11-28T15:08:24.798Z,18.20
2022-11-28T15:10:56.746Z,14.68
2022-11-28T15:13:34.326Z,17.02
2022-11-28T15:16:04.570Z,18.85
2022-11-28T15:18:34.672Z,16.27
2022-11-28T15:21:06.602Z,15.77
2022-11-28T15:23:38.302Z,16.50
2022-11-28T15:26:07.029Z,20.38
2022-11-28T15:28:36.182Z,18.52
2022-11-28T15:31:05.608Z,18.90
2022-11-28T15:33:33.577Z,18.80
2022-11-28T15:36:10.451Z,17.67
2022-11-28T15:38:39.187Z,17.73
2022-11-28T15:41:06.730Z,14.77
2022-11-28T15:43:34.547Z,15.63
2022-11-28T15:46:02.614Z,18.00
2022-11-28T15:48:39.474Z,14.23
2022-11-28T15:51:09.456Z,17.63
2022-11-28T15:53:42.143Z,19.20
2022-11-28T15:56:11.778Z,18.75
2022-11-28T15:58:40.235Z,17.63
2022-11-28T16:01:11.567Z,20.37
2022-11-28T16:03:46.717Z,17.23
2022-11-28T16:06:17.557Z,20.67
2022-11-28T16:08:50.305Z,18.95
2022-11-28T16:11:19.808Z,17.98
2022-11-28T16:13:48.298Z,15.35
2022-11-28T16:16:17.980Z,17.55
2022-11-28T16:18:46.893Z,18.15
2022-11-28T16:21:16.177Z,14.63
2022-11-28T16:23:44.081Z,18.02
2022-11-28T16:26:23.062Z,16.63
2022-11-28T16:29:00.641Z,15.70
2022-11-28T16:31:29.717Z,16.83
2022-11-28T16:33:58.184Z,16.43
2022-11-28T16:36:32.185Z,19.00
2022-11-28T16:39:06.592Z,16.17
2022-11-28T16:41:36.320Z,16.08
2022-11-28T16:44:05.995Z,16.60
2022-11-28T16:46:35.694Z,19.13
2022-11-28T16:49:05.111Z,15.68
2022-11-28T16:51:38.637Z,16.00
2022-11-28T16:54:39.240Z,17.33
2022-11-28T16:57:11.936Z,20.15
2022-11-28T16:59:39.619Z,17.50
2022-11-28T17:02:14.887Z,20.05
2022-11-28T17:04:42.810Z,16.52
2022-11-28T17:07:13.975Z,21.35
2022-11-28T17:09:42.148Z,16.65
2022-11-28T17:12:15.836Z,20.33
2022-11-28T17:14:44.053Z,18.17
2022-11-28T17:17:13.374Z,17.90
2022-11-28T17:19:41.084Z,26.80
2022-11-28T17:22:09.560Z,18.27
2022-11-28T17:24:38.883Z,18.47
2022-11-28T17:27:08.622Z,22.50
2022-11-28T17:29:37.079Z,21.75
2022-11-28T17:32:05.387Z,24.52
2022-11-28T17:34:34.870Z,21.77
2022-11-28T17:37:03.331Z,24.08
2022-11-28T17:39:30.955Z,26.08
2022-11-28T17:41:59.900Z,29.73
2022-11-28T17:44:29.453Z,28.58
2022-11-28T17:47:00.415Z,25.23
2022-11-28T17:49:28.537Z,28.20
2022-11-28T17:51:57.572Z,28.25
2022-11-28T17:54:26.772Z,34.38
2022-11-28T17:56:54.967Z,34.58
2022-11-28T17:59:26.884Z,30.15
2022-11-28T18:01:54.751Z,28.75
2022-11-28T18:04:23.037Z,31.25
2022-11-28T18:06:50.550Z,31.25
2022-11-28T18:09:18.271Z,33.38
2022-11-28T18:11:46.290Z,42.87
2022-11-28T18:14:14.287Z,36.03
2022-11-28T18:16:43.985Z,38.63
2022-11-28T18:19:11.704Z,29.98
2022-11-28T18:21:40.125Z,37.85
2022-11-28T18:24:08.712Z,33.40
2022-11-28T18:26:37.661Z,38.75
2022-11-28T18:29:06.869Z,38.25
2022-11-28T18:31:35.065Z,33.95
2022-11-28T18:34:06.292Z,34.83
2022-11-28T18:36:35.158Z,39.15
2022-11-28T18:39:05.020Z,32.08
2022-11-28T18:41:33.033Z,37.47
2022-11-28T18:44:02.249Z,38.75
2022-11-28T18:46:30.609Z,43.45
2022-11-28T18:48:58.785Z,35.85
2022-11-28T18:51:31.565Z,34.53
2022-11-28T18:53:59.483Z,33.43
2022-11-28T18:56:29.219Z,31.25
2022-11-28T18:58:58.562Z,35.20
2022-11-28T19:01:28.493Z,44.78
2022-11-28T19:03:57.834Z,38.47
2022-11-28T19:06:25.433Z,34.17
2022-11-28T19:08:56.054Z,40.70
2022-11-28T19:11:24.928Z,37.60
2022-11-28T19:13:53.709Z,49.70
2022-11-28T19:16:23.378Z,52.53
2022-11-28T19:18:51.306Z,47.90
2022-11-28T19:21:20.800Z,49.33
2022-11-28T19:23:48.647Z,45.07
2022-11-28T19:26:20.059Z,47.45
2022-11-28T19:28:48.150Z,46.75
2022-11-28T19:31:20.241Z,49.00
2022-11-28T19:33:48.729Z,48.13
2022-11-28T19:36:16.314Z,61.58
2022-11-28T19:38:43.843Z,52.28
2022-11-28T19:41:13.650Z,43.03
2022-11-28T19:43:44.462Z,48.38
2022-11-28T19:46:13.007Z,77.00
2022-11-28T19:48:41.565Z,66.10
2022-11-28T19:51:10.455Z,50.58
2022-11-28T19:53:43.863Z,61.38
2022-11-28T19:56:14.599Z,63.83
2022-11-28T19:58:42.170Z,63.85
2022-11-28T20:01:13.386Z,64.47
2022-11-28T20:03:42.343Z,40.10
2022-11-28T20:06:11.015Z,68.00
2022-11-28T20:08:39.213Z,60.03
2022-11-28T20:11:11.620Z,55.28
2022-11-28T20:13:39.407Z,48.45
2022-11-28T20:16:08.764Z,52.33
2022-11-28T20:18:39.254Z,47.80
2022-11-28T20:21:07.951Z,46.50
2022-11-28T20:23:40.200Z,49.10
2022-11-28T20:26:08.131Z,45.75
2022-11-28T20:28:37.266Z,44.27
2022-11-28T20:31:06.060Z,37.07
2022-11-28T20:33:33.858Z,45.63
2022-11-28T20:36:11.111Z,47.38
2022-11-28T20:38:40.406Z,40.83
2022-11-28T20:41:09.291Z,47.83
2022-11-28T20:43:38.719Z,53.63
2022-11-28T20:46:07.755Z,43.55
2022-11-28T20:48:35.775Z,45.50
2022-11-28T20:51:03.462Z,42.70
2022-11-28T20:53:32.474Z,43.95
2022-11-28T20:56:01.296Z,46.30
2022-11-28T20:58:29.570Z,46.30
2022-11-28T21:00:57.373Z,50.33
2022-11-28T21:03:25.645Z,42.30
2022-11-28T21:05:59.360Z,51.17
2022-11-28T21:08:30.275Z,34.67
2022-11-28T21:10:59.367Z,42.33
2022-11-28T21:13:26.932Z,36.35
2022-11-28T21:15:54.503Z,34.60
2022-11-28T21:18:22.142Z,34.38
2022-11-28T21:20:52.792Z,34.75
2022-11-28T21:23:20.519Z,47.38
2022-11-28T21:25:48.042Z,45.10
2022-11-28T21:28:17.094Z,33.20
2022-11-28T21:30:46.089Z,57.90
2022-11-28T21:33:14.241Z,29.98
2022-11-28T21:35:41.886Z,38.38
2022-11-28T21:38:09.484Z,40.23
2022-11-28T21:40:37.030Z,36.90
2022-11-28T21:43:04.717Z,36.33
2022-11-28T21:45:35.767Z,33.08
2022-11-28T21:48:03.399Z,30.60
2022-11-28T21:50:30.996Z,39.90
2022-11-28T21:52:58.724Z,33.08
2022-11-28T21:55:26.301Z,43.75
2022-11-28T21:57:53.808Z,39.78
2022-11-28T22:00:46.030Z,37.30
2022-11-28T22:03:14.102Z,40.65
2022-11-28T22:05:42.115Z,27.50
2022-11-28T22:08:10.669Z,40.28
2022-11-28T22:10:38.547Z,42.17
2022-11-28T22:13:06.304Z,42.95
2022-11-28T22:15:34.022Z,33.13
2022-11-28T22:18:01.594Z,33.03
2022-11-28T22:20:30.767Z,25.50
2022-11-28T22:22:58.541Z,28.03
2022-11-28T22:25:26.253Z,27.95
2022-11-28T22:27:53.855Z,38.83
2022-11-28T22:30:21.877Z,38.53
2022-11-28T22:32:49.469Z,31.48
2022-11-28T22:35:17.244Z,34.45
2022-11-28T22:37:46.212Z,28.38
2022-11-28T22:40:15.643Z,27.45
2022-11-28T22:42:43.315Z,26.10
2022-11-28T22:45:11.132Z,26.65
2022-11-28T22:47:38.800Z,25.70
2022-11-28T22:50:07.881Z,31.30
2022-11-28T22:52:35.427Z,30.95
2022-11-28T22:55:04.614Z,28.30
2022-11-28T22:57:32.383Z,33.75
2022-11-28T22:59:59.943Z,34.75
2022-11-28T23:02:27.576Z,41.83
2022-11-28T23:04:55.308Z,26.10
2022-11-28T23:07:23.143Z,32.20
2022-11-28T23:09:51.365Z,36.70
2022-11-28T23:12:20.600Z,22.27
2022-11-28T23:14:51.444Z,23.38
2022-11-28T23:17:19.471Z,21.33
2022-11-28T23:19:47.351Z,24.75
2022-11-28T23:22:15.003Z,26.27
2022-11-28T23:24:42.789Z,27.95
2022-11-28T23:27:10.528Z,31.08
2022-11-28T23:29:39.445Z,13.57
2022-11-28T23:32:07.306Z,13.68
2022-11-28T23:34:35.003Z,11.82
2022-11-28T23:37:03.604Z,12.00
2022-11-28T23:39:31.242Z,12.17
2022-11-28T23:42:00.005Z,9.90
2022-11-28T23:44:27.522Z,18.30
2022-11-28T23:46:56.600Z,10.52
2022-11-28T23:49:24.114Z,8.45
2022-11-28T23:51:51.685Z,8.43
2022-11-28T23:54:19.264Z,9.70
2022-11-28T23:56:46.807Z,5.72
2022-11-28T23:59:14.379Z,10.20
